sensor_id;sensor_type;location;lat;lon;timestamp;pressure;altitude;pressure_sealevel;temperature;humidity
74905;BME280;63465;50.862;6.220;2024-03-07T00:02:09;100597.06;;;5.35;78.65
74905;BME280;63465;50.862;6.220;2024-03-07T00:04:35;100598.06;;;5.40;78.80
74905;BME280;63465;50.862;6.220;2024-03-07T00:07:02;100595.38;;;5.37;78.84
74905;BME280;63465;50.862;6.220;2024-03-07T00:09:31;100591.72;;;5.28;79.09
74905;BME280;63465;50.862;6.220;2024-03-07T00:11:57;100592.44;;;5.22;79.91
74905;BME280;63465;50.862;6.220;2024-03-07T00:14:22;100584.63;;;5.17;80.36
74905;BME280;63465;50.862;6.220;2024-03-07T00:16:55;100593.06;;;5.12;80.05
74905;BME280;63465;50.862;6.220;2024-03-07T00:19:20;100592.84;;;5.04;80.10
74905;BME280;63465;50.862;6.220;2024-03-07T00:21:46;100590.22;;;5.01;80.63
74905;BME280;63465;50.862;6.220;2024-03-07T00:24:11;100596.09;;;4.97;80.40
74905;BME280;63465;50.862;6.220;2024-03-07T00:26:39;100589.97;;;4.92;80.43
74905;BME280;63465;50.862;6.220;2024-03-07T00:29:05;100578.69;;;4.87;80.50
74905;BME280;63465;50.862;6.220;2024-03-07T00:31:32;100585.44;;;4.82;80.70
74905;BME280;63465;50.862;6.220;2024-03-07T00:33:58;100587.91;;;4.79;80.56
74905;BME280;63465;50.862;6.220;2024-03-07T00:36:23;100588.66;;;4.75;81.01
74905;BME280;63465;50.862;6.220;2024-03-07T00:38:48;100588.94;;;4.86;80.15
74905;BME280;63465;50.862;6.220;2024-03-07T00:41:14;100588.28;;;4.94;79.24
74905;BME280;63465;50.862;6.220;2024-03-07T00:43:40;100584.56;;;4.82;79.65
74905;BME280;63465;50.862;6.220;2024-03-07T00:46:06;100585.19;;;4.73;80.14
74905;BME280;63465;50.862;6.220;2024-03-07T00:48:32;100585.19;;;4.73;79.82
74905;BME280;63465;50.862;6.220;2024-03-07T00:50:57;100577.72;;;4.82;79.46
74905;BME280;63465;50.862;6.220;2024-03-07T00:53:23;100575.84;;;4.76;79.58
74905;BME280;63465;50.862;6.220;2024-03-07T00:55:48;100568.97;;;4.74;79.82
74905;BME280;63465;50.862;6.220;2024-03-07T00:58:13;100570.53;;;4.69;79.88
74905;BME280;63465;50.862;6.220;2024-03-07T01:00:39;100571.75;;;4.83;79.28
74905;BME280;63465;50.862;6.220;2024-03-07T01:03:08;100566.81;;;4.91;78.87
74905;BME280;63465;50.862;6.220;2024-03-07T01:05:36;100565.09;;;4.91;78.70
74905;BME280;63465;50.862;6.220;2024-03-07T01:08:01;100561.53;;;4.85;79.19
74905;BME280;63465;50.862;6.220;2024-03-07T01:10:27;100565.72;;;4.83;79.10
74905;BME280;63465;50.862;6.220;2024-03-07T01:12:53;100554.75;;;4.88;78.83
74905;BME280;63465;50.862;6.220;2024-03-07T01:15:22;100556.44;;;4.86;78.81
74905;BME280;63465;50.862;6.220;2024-03-07T01:17:48;100556.59;;;4.92;78.26
74905;BME280;63465;50.862;6.220;2024-03-07T01:20:13;100557.47;;;4.94;78.34
74905;BME280;63465;50.862;6.220;2024-03-07T01:22:38;100553.13;;;4.90;78.46
74905;BME280;63465;50.862;6.220;2024-03-07T01:25:04;100553.75;;;4.82;78.64
74905;BME280;63465;50.862;6.220;2024-03-07T01:27:30;100552.06;;;4.82;78.56
74905;BME280;63465;50.862;6.220;2024-03-07T01:29:55;100551.19;;;4.83;78.04
74905;BME280;63465;50.862;6.220;2024-03-07T01:32:21;100553.88;;;4.86;78.21
74905;BME280;63465;50.862;6.220;2024-03-07T01:34:46;100550.50;;;4.89;77.82
74905;BME280;63465;50.862;6.220;2024-03-07T01:37:11;100558.16;;;4.87;77.33
74905;BME280;63465;50.862;6.220;2024-03-07T01:39:36;100554.72;;;4.87;77.52
74905;BME280;63465;50.862;6.220;2024-03-07T01:42:02;100555.56;;;4.86;77.50
74905;BME280;63465;50.862;6.220;2024-03-07T01:44:27;100552.25;;;4.90;77.86
74905;BME280;63465;50.862;6.220;2024-03-07T01:46:52;100546.03;;;4.82;77.75
74905;BME280;63465;50.862;6.220;2024-03-07T01:49:18;100546.16;;;4.86;77.91
74905;BME280;63465;50.862;6.220;2024-03-07T01:51:44;100541.97;;;4.90;77.89
74905;BME280;63465;50.862;6.220;2024-03-07T01:54:10;100549.69;;;4.91;77.66
74905;BME280;63465;50.862;6.220;2024-03-07T01:56:36;100541.09;;;4.89;77.31
74905;BME280;63465;50.862;6.220;2024-03-07T01:59:01;100535.03;;;4.87;77.48
74905;BME280;63465;50.862;6.220;2024-03-07T02:01:29;100541.06;;;4.88;77.14
74905;BME280;63465;50.862;6.220;2024-03-07T02:03:54;100538.53;;;4.89;77.13
74905;BME280;63465;50.862;6.220;2024-03-07T02:06:20;100529.03;;;4.87;77.89
74905;BME280;63465;50.862;6.220;2024-03-07T02:08:45;100529.91;;;4.87;77.60
74905;BME280;63465;50.862;6.220;2024-03-07T02:11:11;100527.31;;;4.86;77.36
74905;BME280;63465;50.862;6.220;2024-03-07T02:13:37;100525.63;;;4.86;77.33
74905;BME280;63465;50.862;6.220;2024-03-07T02:16:02;100517.00;;;4.84;77.08
74905;BME280;63465;50.862;6.220;2024-03-07T02:21:09;100515.03;;;4.74;77.19
74905;BME280;63465;50.862;6.220;2024-03-07T02:23:37;100515.06;;;4.75;77.47
74905;BME280;63465;50.862;6.220;2024-03-07T02:26:02;100510.72;;;4.73;77.44
74905;BME280;63465;50.862;6.220;2024-03-07T02:28:28;100503.91;;;4.75;77.32
74905;BME280;63465;50.862;6.220;2024-03-07T02:30:53;100508.22;;;4.76;77.58
74905;BME280;63465;50.862;6.220;2024-03-07T02:33:18;100505.72;;;4.77;77.35
74905;BME280;63465;50.862;6.220;2024-03-07T02:35:44;100505.22;;;4.59;78.22
74905;BME280;63465;50.862;6.220;2024-03-07T02:38:09;100503.81;;;4.38;79.95
74905;BME280;63465;50.862;6.220;2024-03-07T02:40:35;100511.91;;;4.21;80.50
74905;BME280;63465;50.862;6.220;2024-03-07T02:43:00;100502.25;;;4.13;81.05
74905;BME280;63465;50.862;6.220;2024-03-07T02:45:28;100504.06;;;4.15;81.45
74905;BME280;63465;50.862;6.220;2024-03-07T02:47:55;100504.81;;;4.13;81.79
74905;BME280;63465;50.862;6.220;2024-03-07T02:50:20;100503.13;;;4.13;81.77
74905;BME280;63465;50.862;6.220;2024-03-07T02:52:47;100506.53;;;4.12;81.89
74905;BME280;63465;50.862;6.220;2024-03-07T02:55:13;100504.94;;;4.16;81.41
74905;BME280;63465;50.862;6.220;2024-03-07T02:57:39;100498.06;;;4.15;81.88
74905;BME280;63465;50.862;6.220;2024-03-07T03:00:04;100499.75;;;4.14;81.64
74905;BME280;63465;50.862;6.220;2024-03-07T03:02:39;100493.72;;;4.12;81.66
74905;BME280;63465;50.862;6.220;2024-03-07T03:05:05;100493.59;;;4.08;82.00
74905;BME280;63465;50.862;6.220;2024-03-07T03:07:33;100491.63;;;3.99;82.29
74905;BME280;63465;50.862;6.220;2024-03-07T03:09:58;100494.19;;;3.99;82.74
74905;BME280;63465;50.862;6.220;2024-03-07T03:12:23;100488.94;;;3.95;82.59
74905;BME280;63465;50.862;6.220;2024-03-07T03:14:49;100489.53;;;3.86;82.82
74905;BME280;63465;50.862;6.220;2024-03-07T03:17:14;100483.44;;;3.81;83.49
74905;BME280;63465;50.862;6.220;2024-03-07T03:19:39;100484.25;;;3.80;83.87
74905;BME280;63465;50.862;6.220;2024-03-07T03:22:05;100480.72;;;3.76;83.84
74905;BME280;63465;50.862;6.220;2024-03-07T03:24:30;100483.97;;;3.71;83.93
74905;BME280;63465;50.862;6.220;2024-03-07T03:26:55;100479.72;;;3.71;83.92
74905;BME280;63465;50.862;6.220;2024-03-07T03:29:21;100482.19;;;3.68;83.97
74905;BME280;63465;50.862;6.220;2024-03-07T03:31:46;100478.19;;;3.78;84.10
74905;BME280;63465;50.862;6.220;2024-03-07T03:34:11;100476.69;;;3.85;83.79
74905;BME280;63465;50.862;6.220;2024-03-07T03:36:37;100469.16;;;3.91;83.63
74905;BME280;63465;50.862;6.220;2024-03-07T03:39:02;100471.06;;;3.98;83.48
74905;BME280;63465;50.862;6.220;2024-03-07T03:41:27;100466.13;;;4.04;83.33
74905;BME280;63465;50.862;6.220;2024-03-07T03:43:53;100462.63;;;4.02;83.17
74905;BME280;63465;50.862;6.220;2024-03-07T03:46:18;100471.25;;;4.04;83.05
74905;BME280;63465;50.862;6.220;2024-03-07T03:48:43;100465.09;;;3.99;83.19
74905;BME280;63465;50.862;6.220;2024-03-07T03:51:09;100464.03;;;3.91;83.70
74905;BME280;63465;50.862;6.220;2024-03-07T03:53:37;100471.06;;;3.98;83.64
74905;BME280;63465;50.862;6.220;2024-03-07T03:56:03;100475.28;;;3.96;83.30
74905;BME280;63465;50.862;6.220;2024-03-07T03:58:30;100473.59;;;3.96;83.45
74905;BME280;63465;50.862;6.220;2024-03-07T04:00:55;100470.91;;;3.92;83.56
74905;BME280;63465;50.862;6.220;2024-03-07T04:03:21;100471.50;;;3.83;83.86
74905;BME280;63465;50.862;6.220;2024-03-07T04:05:46;100477.44;;;3.80;84.15
74905;BME280;63465;50.862;6.220;2024-03-07T04:08:12;100472.31;;;3.82;83.80
74905;BME280;63465;50.862;6.220;2024-03-07T04:10:37;100473.25;;;3.84;83.39
74905;BME280;63465;50.862;6.220;2024-03-07T04:13:03;100469.88;;;3.85;83.51
74905;BME280;63465;50.862;6.220;2024-03-07T04:15:28;100474.00;;;3.81;83.73
74905;BME280;63465;50.862;6.220;2024-03-07T04:17:56;100467.94;;;3.78;83.31
74905;BME280;63465;50.862;6.220;2024-03-07T04:20:22;100471.28;;;3.75;83.89
74905;BME280;63465;50.862;6.220;2024-03-07T04:22:47;100466.84;;;3.70;84.09
74905;BME280;63465;50.862;6.220;2024-03-07T04:25:14;100465.66;;;3.59;83.75
74905;BME280;63465;50.862;6.220;2024-03-07T04:27:40;100458.69;;;3.53;84.26
74905;BME280;63465;50.862;6.220;2024-03-07T04:30:06;100461.13;;;3.50;84.31
74905;BME280;63465;50.862;6.220;2024-03-07T04:32:33;100458.34;;;3.43;84.73
74905;BME280;63465;50.862;6.220;2024-03-07T04:35:02;100458.25;;;3.38;84.42
74905;BME280;63465;50.862;6.220;2024-03-07T04:37:29;100460.50;;;3.29;84.99
74905;BME280;63465;50.862;6.220;2024-03-07T04:39:54;100459.56;;;3.25;85.17
74905;BME280;63465;50.862;6.220;2024-03-07T04:42:20;100457.88;;;3.26;85.27
74905;BME280;63465;50.862;6.220;2024-03-07T04:44:45;100456.94;;;3.24;85.72
74905;BME280;63465;50.862;6.220;2024-03-07T04:47:10;100460.50;;;3.29;85.45
74905;BME280;63465;50.862;6.220;2024-03-07T04:49:36;100461.38;;;3.29;85.46
74905;BME280;63465;50.862;6.220;2024-03-07T04:52:03;100459.69;;;3.30;84.76
74905;BME280;63465;50.862;6.220;2024-03-07T04:54:29;100463.94;;;3.29;85.40
74905;BME280;63465;50.862;6.220;2024-03-07T04:56:55;100461.28;;;3.26;85.23
74905;BME280;63465;50.862;6.220;2024-03-07T04:59:21;100453.63;;;3.28;85.17
74905;BME280;63465;50.862;6.220;2024-03-07T05:01:47;100457.72;;;3.21;85.04
74905;BME280;63465;50.862;6.220;2024-03-07T05:04:15;100458.63;;;3.23;85.08
74905;BME280;63465;50.862;6.220;2024-03-07T05:06:41;100465.41;;;3.21;84.59
74905;BME280;63465;50.862;6.220;2024-03-07T05:09:10;100452.50;;;3.18;84.69
74905;BME280;63465;50.862;6.220;2024-03-07T05:11:46;100455.31;;;3.27;84.84
74905;BME280;63465;50.862;6.220;2024-03-07T05:14:12;100456.19;;;3.28;84.37
74905;BME280;63465;50.862;6.220;2024-03-07T05:16:37;100458.44;;;3.17;84.61
74905;BME280;63465;50.862;6.220;2024-03-07T05:19:02;100454.78;;;3.09;84.53
74905;BME280;63465;50.862;6.220;2024-03-07T05:21:30;100459.09;;;3.10;84.59
74905;BME280;63465;50.862;6.220;2024-03-07T05:24:03;100453.91;;;3.09;84.59
74905;BME280;63465;50.862;6.220;2024-03-07T05:26:29;100443.38;;;3.00;84.78
74905;BME280;63465;50.862;6.220;2024-03-07T05:29:08;100448.69;;;3.06;84.54
74905;BME280;63465;50.862;6.220;2024-03-07T05:31:35;100448.13;;;3.14;84.81
74905;BME280;63465;50.862;6.220;2024-03-07T05:34:02;100457.66;;;3.20;84.15
74905;BME280;63465;50.862;6.220;2024-03-07T05:36:30;100458.63;;;3.23;83.74
74905;BME280;63465;50.862;6.220;2024-03-07T05:38:55;100450.34;;;3.32;83.43
74905;BME280;63465;50.862;6.220;2024-03-07T05:41:21;100455.63;;;3.37;82.86
74905;BME280;63465;50.862;6.220;2024-03-07T05:43:46;100454.81;;;3.39;82.83
74905;BME280;63465;50.862;6.220;2024-03-07T05:46:11;100456.44;;;3.35;83.04
74905;BME280;63465;50.862;6.220;2024-03-07T05:48:37;100450.56;;;3.40;82.76
74905;BME280;63465;50.862;6.220;2024-03-07T05:51:02;100457.28;;;3.34;83.00
74905;BME280;63465;50.862;6.220;2024-03-07T05:53:28;100456.19;;;3.28;82.67
74905;BME280;63465;50.862;6.220;2024-03-07T05:55:53;100455.81;;;3.16;83.17
74905;BME280;63465;50.862;6.220;2024-03-07T05:58:19;100447.72;;;3.02;83.38
74905;BME280;63465;50.862;6.220;2024-03-07T06:00:48;100446.69;;;2.96;83.81
74905;BME280;63465;50.862;6.220;2024-03-07T06:03:17;100447.72;;;3.02;83.76
74905;BME280;63465;50.862;6.220;2024-03-07T06:05:47;100447.75;;;3.04;83.56
74905;BME280;63465;50.862;6.220;2024-03-07T06:08:20;100452.84;;;3.02;83.87
74905;BME280;63465;50.862;6.220;2024-03-07T06:10:47;100447.53;;;2.96;84.15
74905;BME280;63465;50.862;6.220;2024-03-07T06:13:14;100446.53;;;2.91;84.44
74905;BME280;63465;50.862;6.220;2024-03-07T06:15:43;100453.84;;;2.80;84.43
74905;BME280;63465;50.862;6.220;2024-03-07T06:18:08;100454.56;;;2.76;84.72
74905;BME280;63465;50.862;6.220;2024-03-07T06:20:35;100457.97;;;2.75;84.84
74905;BME280;63465;50.862;6.220;2024-03-07T06:23:01;100450.53;;;2.83;85.06
74905;BME280;63465;50.862;6.220;2024-03-07T06:25:36;100449.72;;;2.84;84.74
74905;BME280;63465;50.862;6.220;2024-03-07T06:28:13;100451.66;;;2.91;84.64
74905;BME280;63465;50.862;6.220;2024-03-07T06:30:39;100451.53;;;2.88;84.66
74905;BME280;63465;50.862;6.220;2024-03-07T06:33:06;100447.09;;;2.82;84.74
74905;BME280;63465;50.862;6.220;2024-03-07T06:35:31;100452.16;;;2.81;85.12
74905;BME280;63465;50.862;6.220;2024-03-07T06:37:57;100446.84;;;2.75;85.36
74905;BME280;63465;50.862;6.220;2024-03-07T06:40:22;100452.78;;;2.74;85.73
74905;BME280;63465;50.862;6.220;2024-03-07T06:42:50;100451.16;;;2.76;85.85
74905;BME280;63465;50.862;6.220;2024-03-07T06:45:16;100447.00;;;2.79;85.67
74905;BME280;63465;50.862;6.220;2024-03-07T06:47:43;100451.53;;;2.88;85.38
74905;BME280;63465;50.862;6.220;2024-03-07T06:50:09;100457.16;;;3.03;84.93
74905;BME280;63465;50.862;6.220;2024-03-07T06:52:35;100459.97;;;3.12;84.50
74905;BME280;63465;50.862;6.220;2024-03-07T06:55:01;100455.16;;;3.21;84.12
74905;BME280;63465;50.862;6.220;2024-03-07T06:57:28;100456.28;;;3.31;83.34
74905;BME280;63465;50.862;6.220;2024-03-07T06:59:53;100449.81;;;3.42;83.36
74905;BME280;63465;50.862;6.220;2024-03-07T07:02:20;100446.81;;;3.57;82.46
74905;BME280;63465;50.862;6.220;2024-03-07T07:04:45;100446.13;;;3.62;82.46
74905;BME280;63465;50.862;6.220;2024-03-07T07:07:13;100443.78;;;3.70;82.05
74905;BME280;63465;50.862;6.220;2024-03-07T07:09:39;100443.91;;;3.74;81.80
74905;BME280;63465;50.862;6.220;2024-03-07T07:12:05;100442.47;;;3.84;81.51
74905;BME280;63465;50.862;6.220;2024-03-07T07:14:30;100446.91;;;3.90;80.99
74905;BME280;63465;50.862;6.220;2024-03-07T07:16:55;100437.94;;;4.05;80.75
74905;BME280;63465;50.862;6.220;2024-03-07T07:19:21;100439.19;;;4.21;79.87
74905;BME280;63465;50.862;6.220;2024-03-07T07:21:47;100446.22;;;4.28;79.35
74905;BME280;63465;50.862;6.220;2024-03-07T07:24:14;100433.66;;;4.37;79.40
74905;BME280;63465;50.862;6.220;2024-03-07T07:26:40;100436.28;;;4.39;78.91
74905;BME280;63465;50.862;6.220;2024-03-07T07:29:05;100437.34;;;4.47;78.66
74905;BME280;63465;50.862;6.220;2024-03-07T07:31:32;100440.03;;;4.53;78.25
74905;BME280;63465;50.862;6.220;2024-03-07T07:33:57;100436.66;;;4.55;78.00
74905;BME280;63465;50.862;6.220;2024-03-07T07:36:23;100424.69;;;4.54;78.00
74905;BME280;63465;50.862;6.220;2024-03-07T07:38:48;100426.16;;;4.45;78.00
74905;BME280;63465;50.862;6.220;2024-03-07T07:41:13;100431.31;;;4.46;77.96
74905;BME280;63465;50.862;6.220;2024-03-07T07:43:40;100427.75;;;4.41;78.05
74905;BME280;63465;50.862;6.220;2024-03-07T07:46:06;100433.84;;;4.45;78.46
74905;BME280;63465;50.862;6.220;2024-03-07T07:48:31;100428.78;;;4.48;78.69
74905;BME280;63465;50.862;6.220;2024-03-07T07:50:56;100421.84;;;4.44;79.10
74905;BME280;63465;50.862;6.220;2024-03-07T07:53:22;100425.31;;;4.46;78.70
74905;BME280;63465;50.862;6.220;2024-03-07T07:55:47;100427.94;;;4.47;78.73
74905;BME280;63465;50.862;6.220;2024-03-07T07:58:14;100424.81;;;4.60;78.86
74905;BME280;63465;50.862;6.220;2024-03-07T08:00:39;100426.72;;;4.67;78.60
74905;BME280;63465;50.862;6.220;2024-03-07T08:03:08;100428.69;;;4.77;78.25
74905;BME280;63465;50.862;6.220;2024-03-07T08:05:34;100425.56;;;4.91;77.93
74905;BME280;63465;50.862;6.220;2024-03-07T08:08:06;100425.78;;;5.00;77.99
74905;BME280;63465;50.862;6.220;2024-03-07T08:10:32;100423.16;;;4.98;77.35
74905;BME280;63465;50.862;6.220;2024-03-07T08:12:59;100417.38;;;5.07;76.77
74905;BME280;63465;50.862;6.220;2024-03-07T08:15:28;100429.69;;;5.21;77.25
74905;BME280;63465;50.862;6.220;2024-03-07T08:17:54;100421.25;;;5.27;76.80
74905;BME280;63465;50.862;6.220;2024-03-07T08:20:21;100425.75;;;5.37;75.60
74905;BME280;63465;50.862;6.220;2024-03-07T08:22:48;100427.66;;;5.46;75.27
74905;BME280;63465;50.862;6.220;2024-03-07T08:25:16;100430.28;;;5.49;75.17
74905;BME280;63465;50.862;6.220;2024-03-07T08:27:45;100423.81;;;5.66;75.22
74905;BME280;63465;50.862;6.220;2024-03-07T08:30:14;100425.81;;;5.81;74.54
74905;BME280;63465;50.862;6.220;2024-03-07T08:32:41;100422.34;;;5.79;73.59
74905;BME280;63465;50.862;6.220;2024-03-07T08:35:08;100426.00;;;5.88;73.60
74905;BME280;63465;50.862;6.220;2024-03-07T08:37:35;100413.41;;;6.02;72.89
74905;BME280;63465;50.862;6.220;2024-03-07T08:40:02;100418.50;;;5.99;72.60
74905;BME280;63465;50.862;6.220;2024-03-07T08:42:35;100419.44;;;6.04;72.74
74905;BME280;63465;50.862;6.220;2024-03-07T08:45:02;100411.03;;;6.12;72.63
74905;BME280;63465;50.862;6.220;2024-03-07T08:47:31;100411.81;;;6.08;71.46
74905;BME280;63465;50.862;6.220;2024-03-07T08:49:57;100417.56;;;5.95;72.27
74905;BME280;63465;50.862;6.220;2024-03-07T08:52:22;100412.63;;;6.06;72.42
74905;BME280;63465;50.862;6.220;2024-03-07T08:54:48;100417.09;;;6.14;71.65
74905;BME280;63465;50.862;6.220;2024-03-07T08:57:13;100409.56;;;6.27;71.48
74905;BME280;63465;50.862;6.220;2024-03-07T08:59:42;100409.81;;;6.40;71.98
74905;BME280;63465;50.862;6.220;2024-03-07T09:02:07;100400.81;;;6.65;71.01
74905;BME280;63465;50.862;6.220;2024-03-07T09:04:32;100403.63;;;6.82;69.80
74905;BME280;63465;50.862;6.220;2024-03-07T09:06:58;100409.94;;;7.02;70.02
74905;BME280;63465;50.862;6.220;2024-03-07T09:09:24;100405.00;;;7.15;68.85
74905;BME280;63465;50.862;6.220;2024-03-07T09:11:49;100404.13;;;7.15;69.00
74905;BME280;63465;50.862;6.220;2024-03-07T09:14:14;100406.09;;;7.31;68.84
74905;BME280;63465;50.862;6.220;2024-03-07T09:16:40;100403.72;;;7.46;67.68
74905;BME280;63465;50.862;6.220;2024-03-07T09:19:06;100401.03;;;7.39;67.62
74905;BME280;63465;50.862;6.220;2024-03-07T09:21:31;100395.97;;;7.46;67.43
74905;BME280;63465;50.862;6.220;2024-03-07T09:23:56;100402.97;;;7.56;66.38
74905;BME280;63465;50.862;6.220;2024-03-07T09:26:22;100395.25;;;7.58;65.95
74905;BME280;63465;50.862;6.220;2024-03-07T09:28:47;100399.38;;;7.45;66.63
74905;BME280;63465;50.862;6.220;2024-03-07T09:31:15;100398.38;;;7.36;66.49
74905;BME280;63465;50.862;6.220;2024-03-07T09:33:41;100389.53;;;7.17;66.63
74905;BME280;63465;50.862;6.220;2024-03-07T09:36:06;100390.75;;;7.42;67.00
74905;BME280;63465;50.862;6.220;2024-03-07T09:38:32;100392.91;;;7.78;66.52
74905;BME280;63465;50.862;6.220;2024-03-07T09:40:58;100399.41;;;8.21;64.01
74905;BME280;63465;50.862;6.220;2024-03-07T09:43:26;100388.44;;;8.43;62.41
74905;BME280;63465;50.862;6.220;2024-03-07T09:45:52;100385.78;;;8.37;62.08
74905;BME280;63465;50.862;6.220;2024-03-07T09:48:17;100373.06;;;8.55;61.32
74905;BME280;63465;50.862;6.220;2024-03-07T09:50:45;100375.97;;;9.03;58.08
74905;BME280;63465;50.862;6.220;2024-03-07T09:53:15;100373.03;;;10.33;54.77
74905;BME280;63465;50.862;6.220;2024-03-07T09:55:41;100373.72;;;11.55;50.51
74905;BME280;63465;50.862;6.220;2024-03-07T09:58:08;100364.78;;;12.11;47.58
74905;BME280;63465;50.862;6.220;2024-03-07T10:00:36;100367.19;;;12.41;47.05
74905;BME280;63465;50.862;6.220;2024-03-07T10:03:07;100368.03;;;12.40;45.89
74905;BME280;63465;50.862;6.220;2024-03-07T10:05:33;100374.97;;;12.40;46.24
74905;BME280;63465;50.862;6.220;2024-03-07T10:07:59;100374.88;;;12.52;45.94
74905;BME280;63465;50.862;6.220;2024-03-07T10:10:25;100377.56;;;13.36;44.24
74905;BME280;63465;50.862;6.220;2024-03-07T10:12:51;100365.94;;;13.65;42.48
74905;BME280;63465;50.862;6.220;2024-03-07T10:15:18;100372.31;;;13.40;41.82
74905;BME280;63465;50.862;6.220;2024-03-07T10:17:45;100363.81;;;13.24;41.89
74905;BME280;63465;50.862;6.220;2024-03-07T10:20:12;100366.41;;;13.23;43.48
74905;BME280;63465;50.862;6.220;2024-03-07T10:22:40;100367.97;;;13.39;42.95
74905;BME280;63465;50.862;6.220;2024-03-07T10:25:06;100362.19;;;14.46;40.66
74905;BME280;63465;50.862;6.220;2024-03-07T10:27:33;100355.88;;;15.55;37.38
74905;BME280;63465;50.862;6.220;2024-03-07T10:30:01;100354.25;;;16.27;35.10
74905;BME280;63465;50.862;6.220;2024-03-07T10:32:26;100358.00;;;16.17;36.22
74905;BME280;63465;50.862;6.220;2024-03-07T10:34:52;100347.94;;;16.35;35.17
74905;BME280;63465;50.862;6.220;2024-03-07T10:37:18;100350.06;;;16.20;34.36
74905;BME280;63465;50.862;6.220;2024-03-07T10:39:46;100350.66;;;14.60;36.79
74905;BME280;63465;50.862;6.220;2024-03-07T10:42:13;100350.97;;;13.05;39.67
74905;BME280;63465;50.862;6.220;2024-03-07T10:44:43;100349.38;;;11.79;42.25
74905;BME280;63465;50.862;6.220;2024-03-07T10:47:14;100348.81;;;10.84;44.56
74905;BME280;63465;50.862;6.220;2024-03-07T10:52:18;100357.34;;;9.82;48.14
74905;BME280;63465;50.862;6.220;2024-03-07T10:55:08;100353.75;;;9.42;49.69
74905;BME280;63465;50.862;6.220;2024-03-07T11:00:11;100350.91;;;8.95;50.88
74905;BME280;63465;50.862;6.220;2024-03-07T11:02:55;100347.50;;;8.94;51.97
74905;BME280;63465;50.862;6.220;2024-03-07T11:05:24;100344.78;;;8.78;51.60
74905;BME280;63465;50.862;6.220;2024-03-07T11:07:51;100337.81;;;8.68;52.73
74905;BME280;63465;50.862;6.220;2024-03-07T11:10:18;100338.78;;;8.82;52.30
74905;BME280;63465;50.862;6.220;2024-03-07T11:12:46;100333.72;;;8.98;51.32
74905;BME280;63465;50.862;6.220;2024-03-07T11:15:14;100336.34;;;9.04;51.26
74905;BME280;63465;50.862;6.220;2024-03-07T11:17:44;100323.72;;;9.94;49.56
74905;BME280;63465;50.862;6.220;2024-03-07T11:20:20;100324.50;;;11.28;46.10
74905;BME280;63465;50.862;6.220;2024-03-07T11:22:46;100316.59;;;11.49;44.77
74905;BME280;63465;50.862;6.220;2024-03-07T11:25:11;100321.09;;;11.08;45.76
74905;BME280;63465;50.862;6.220;2024-03-07T11:27:37;100315.00;;;11.19;44.53
74905;BME280;63465;50.862;6.220;2024-03-07T11:30:08;100309.75;;;11.33;44.66
74905;BME280;63465;50.862;6.220;2024-03-07T11:32:36;100313.50;;;12.29;42.55
74905;BME280;63465;50.862;6.220;2024-03-07T11:35:04;100304.88;;;13.19;40.68
74905;BME280;63465;50.862;6.220;2024-03-07T11:37:45;100300.66;;;13.76;39.25
74905;BME280;63465;50.862;6.220;2024-03-07T11:42:48;100294.91;;;14.66;37.27
74905;BME280;63465;50.862;6.220;2024-03-07T11:45:15;100288.88;;;15.08;36.04
74905;BME280;63465;50.862;6.220;2024-03-07T11:47:57;100287.25;;;15.44;36.09
74905;BME280;63465;50.862;6.220;2024-03-07T11:50:27;100278.13;;;15.22;34.22
74905;BME280;63465;50.862;6.220;2024-03-07T11:52:53;100280.16;;;13.53;37.08
74905;BME280;63465;50.862;6.220;2024-03-07T11:55:20;100279.97;;;12.01;40.13
74905;BME280;63465;50.862;6.220;2024-03-07T11:57:47;100275.31;;;12.37;39.89
74905;BME280;63465;50.862;6.220;2024-03-07T12:00:14;100273.31;;;11.59;41.41
74905;BME280;63465;50.862;6.220;2024-03-07T12:02:40;100266.50;;;11.35;41.92
74905;BME280;63465;50.862;6.220;2024-03-07T12:05:06;100269.63;;;11.98;40.88
74905;BME280;63465;50.862;6.220;2024-03-07T12:07:32;100264.16;;;12.28;41.06
74905;BME280;63465;50.862;6.220;2024-03-07T12:09:59;100259.06;;;12.16;40.48
74905;BME280;63465;50.862;6.220;2024-03-07T12:12:25;100268.44;;;12.36;40.38
74905;BME280;63465;50.862;6.220;2024-03-07T12:14:53;100253.69;;;12.37;39.70
74905;BME280;63465;50.862;6.220;2024-03-07T12:17:19;100249.34;;;12.41;40.37
74905;BME280;63465;50.862;6.220;2024-03-07T12:19:46;100237.31;;;12.27;39.98
74905;BME280;63465;50.862;6.220;2024-03-07T12:22:12;100239.91;;;13.08;38.86
74905;BME280;63465;50.862;6.220;2024-03-07T12:24:39;100231.19;;;13.75;37.87
74905;BME280;63465;50.862;6.220;2024-03-07T12:27:10;100223.13;;;13.92;38.72
74905;BME280;63465;50.862;6.220;2024-03-07T12:29:37;100226.47;;;13.98;38.01
74905;BME280;63465;50.862;6.220;2024-03-07T12:32:07;100214.28;;;12.75;39.20
74905;BME280;63465;50.862;6.220;2024-03-07T12:34:43;100208.34;;;11.66;41.36
74905;BME280;63465;50.862;6.220;2024-03-07T12:37:11;100217.31;;;11.09;43.92
74905;BME280;63465;50.862;6.220;2024-03-07T12:39:36;100193.34;;;10.48;44.30
74905;BME280;63465;50.862;6.220;2024-03-07T12:42:12;100208.06;;;10.35;45.18
74905;BME280;63465;50.862;6.220;2024-03-07T12:44:43;100199.34;;;10.59;44.46
74905;BME280;63465;50.862;6.220;2024-03-07T12:47:14;100207.94;;;10.78;44.66
74905;BME280;63465;50.862;6.220;2024-03-07T12:49:44;100190.66;;;10.84;43.82
74905;BME280;63465;50.862;6.220;2024-03-07T12:52:10;100191.63;;;10.53;45.12
74905;BME280;63465;50.862;6.220;2024-03-07T12:54:37;100191.66;;;10.36;45.91
74905;BME280;63465;50.862;6.220;2024-03-07T12:57:06;100177.88;;;9.93;46.72
74905;BME280;63465;50.862;6.220;2024-03-07T12:59:34;100183.03;;;9.86;46.82
74905;BME280;63465;50.862;6.220;2024-03-07T13:02:03;100181.31;;;9.82;47.34
74905;BME280;63465;50.862;6.220;2024-03-07T13:04:28;100178.72;;;9.85;48.49
74905;BME280;63465;50.862;6.220;2024-03-07T13:06:55;100166.66;;;9.91;47.29